AFL694 LTCG-LTAC
Flight info
| Callsign | AFL694 |
|---|---|
| Flight time | 1h 7m |
| Altitude | 38000 |
| Route | TEMEL UW71 ILHAN |
| Aircraft | A20N/M-SDE2E3FGHIRWXY/LB1 |
Departure
| Time | 2026-04-28 18:52 |
|---|---|
| Airport | Trabzon International Airport (LTCG) |
Arrival
| Time | 2026-04-28 20:00 |
|---|---|
| Airport | Esenboğa International Airport (LTAC) |
| Time | Latitude | Longitude | Altitude | Speed | Heading |
|---|---|---|---|---|---|
| 2026-04-28 18:41 | 40.99601 | 39.77945 | 109 ft | 0 kts | 303° |
| 2026-04-28 18:49 | 40.99603 | 39.77944 | 109 ft | 0 kts | 322° |
| 2026-04-28 18:50 | 40.99614 | 39.77946 | 108 ft | 6 kts | 357° |
| 2026-04-28 18:50 | 40.99682 | 39.77929 | 109 ft | 14 kts | 316° |
| 2026-04-28 18:50 | 40.99725 | 39.77799 | 109 ft | 18 kts | 291° |
| 2026-04-28 18:50 | 40.99775 | 39.77635 | 110 ft | 20 kts | 293° |
| 2026-04-28 18:51 | 40.99827 | 39.77514 | 109 ft | 14 kts | 321° |
| 2026-04-28 18:51 | 40.99922 | 39.77525 | 111 ft | 16 kts | 51° |
| 2026-04-28 18:51 | 40.99907 | 39.77684 | 109 ft | 31 kts | 112° |
| 2026-04-28 18:51 | 40.99698 | 39.78359 | 107 ft | 123 kts | 112° |
| 2026-04-28 18:52 | 40.99317 | 39.79607 | 568 ft | 152 kts | 112° |
| 2026-04-28 18:52 | 40.98996 | 39.80960 | 1315 ft | 164 kts | 98° |
| 2026-04-28 18:52 | 40.98962 | 39.82571 | 2095 ft | 182 kts | 83° |
| 2026-04-28 18:52 | 40.99263 | 39.84210 | 3229 ft | 184 kts | 68° |
| 2026-04-28 18:53 | 40.99868 | 39.85697 | 4413 ft | 183 kts | 53° |
| 2026-04-28 18:53 | 41.00766 | 39.87000 | 5348 ft | 201 kts | 40° |
| 2026-04-28 18:53 | 41.01923 | 39.88132 | 6264 ft | 218 kts | 42° |
| 2026-04-28 18:53 | 41.02833 | 39.89806 | 7151 ft | 235 kts | 60° |
| 2026-04-28 18:54 | 41.03931 | 39.91509 | 8026 ft | 251 kts | 37° |
| 2026-04-28 18:54 | 41.05486 | 39.92586 | 9132 ft | 255 kts | 14° |
| 2026-04-28 18:54 | 41.07263 | 39.92652 | 10113 ft | 261 kts | 346° |
| 2026-04-28 18:54 | 41.08878 | 39.91582 | 11018 ft | 264 kts | 318° |
| 2026-04-28 18:55 | 41.09947 | 39.89602 | 11921 ft | 270 kts | 292° |
| 2026-04-28 18:55 | 41.10323 | 39.87986 | 12270 ft | 285 kts | 283° |
| 2026-04-28 18:55 | 41.10887 | 39.84337 | 12799 ft | 317 kts | 283° |
| 2026-04-28 18:55 | 41.11466 | 39.81407 | 13155 ft | 340 kts | 288° |
| 2026-04-28 18:56 | 41.12238 | 39.78389 | 13898 ft | 348 kts | 291° |
| 2026-04-28 18:56 | 41.13115 | 39.75381 | 14746 ft | 351 kts | 293° |
| 2026-04-28 18:56 | 41.13855 | 39.72293 | 15559 ft | 355 kts | 280° |
| 2026-04-28 18:56 | 41.13881 | 39.68990 | 16191 ft | 367 kts | 263° |
| 2026-04-28 18:57 | 41.13108 | 39.65647 | 16467 ft | 394 kts | 245° |
| 2026-04-28 18:57 | 41.11563 | 39.62539 | 16774 ft | 414 kts | 230° |
| 2026-04-28 18:57 | 41.09418 | 39.59928 | 17387 ft | 421 kts | 220° |
| 2026-04-28 18:57 | 41.07122 | 39.57491 | 18120 ft | 423 kts | 225° |
| 2026-04-28 18:58 | 41.05234 | 39.54513 | 18756 ft | 425 kts | 238° |
| 2026-04-28 18:58 | 41.03894 | 39.50980 | 19050 ft | 435 kts | 251° |
| 2026-04-28 18:58 | 41.03204 | 39.47066 | 19452 ft | 439 kts | 264° |
| 2026-04-28 18:58 | 41.03209 | 39.42988 | 20111 ft | 446 kts | 276° |
| 2026-04-28 18:59 | 41.03673 | 39.38988 | 21039 ft | 445 kts | 280° |
| 2026-04-28 18:59 | 41.04213 | 39.34964 | 22066 ft | 443 kts | 279° |
| 2026-04-28 18:59 | 41.04677 | 39.30865 | 22537 ft | 445 kts | 277° |
| 2026-04-28 18:59 | 41.05031 | 39.26749 | 22745 ft | 455 kts | 275° |
| 2026-04-28 19:00 | 41.13836 | 37.93252 | 22962 ft | 456 kts | 275° |
| 2026-04-28 19:00 | 41.14219 | 37.89082 | 23692 ft | 453 kts | 282° |
| 2026-04-28 19:00 | 41.15156 | 37.85179 | 24891 ft | 436 kts | 290° |
| 2026-04-28 19:00 | 41.16216 | 37.81481 | 26163 ft | 418 kts | 287° |
| 2026-04-28 19:01 | 41.17050 | 37.77853 | 27247 ft | 407 kts | 283° |
| 2026-04-28 19:01 | 41.17650 | 37.74161 | 27677 ft | 412 kts | 278° |
| 2026-04-28 19:01 | 41.18075 | 37.70394 | 28115 ft | 414 kts | 276° |
| 2026-04-28 19:01 | 41.18413 | 37.66579 | 28551 ft | 418 kts | 275° |
| 2026-04-28 19:02 | 41.18720 | 37.62704 | 28675 ft | 427 kts | 274° |
| 2026-04-28 19:02 | 41.18997 | 37.58731 | 28786 ft | 436 kts | 272° |
| 2026-04-28 19:02 | 41.19182 | 37.54677 | 28939 ft | 443 kts | 272° |
| 2026-04-28 19:02 | 41.19394 | 37.50586 | 29355 ft | 445 kts | 273° |
| 2026-04-28 19:03 | 41.19667 | 37.46495 | 29786 ft | 445 kts | 274° |
| 2026-04-28 19:03 | 41.19969 | 37.42410 | 30324 ft | 443 kts | 274° |
| 2026-04-28 19:03 | 41.20276 | 37.38381 | 31087 ft | 434 kts | 274° |
| 2026-04-28 19:03 | 41.20477 | 37.35749 | 31524 ft | 431 kts | 274° |
| 2026-04-28 19:04 | 41.20775 | 37.31794 | 31999 ft | 430 kts | 274° |
| 2026-04-28 19:04 | 41.21069 | 37.27848 | 32457 ft | 429 kts | 274° |
| 2026-04-28 19:04 | 41.21359 | 37.23899 | 32923 ft | 428 kts | 274° |
| 2026-04-28 19:04 | 41.21648 | 37.19969 | 33382 ft | 427 kts | 274° |
| 2026-04-28 19:05 | 41.21950 | 37.16054 | 33831 ft | 426 kts | 274° |
| 2026-04-28 19:05 | 41.22257 | 37.12139 | 34247 ft | 425 kts | 274° |
| 2026-04-28 19:05 | 41.22564 | 37.08232 | 34559 ft | 424 kts | 274° |
| 2026-04-28 19:05 | 41.22867 | 37.04331 | 34881 ft | 424 kts | 274° |
| 2026-04-28 19:06 | 41.23168 | 37.00433 | 35218 ft | 424 kts | 274° |
| 2026-04-28 19:06 | 41.23466 | 36.96536 | 35546 ft | 423 kts | 274° |
| 2026-04-28 19:06 | 41.23757 | 36.92699 | 35851 ft | 423 kts | 274° |
| 2026-04-28 19:06 | 41.24051 | 36.88809 | 36161 ft | 423 kts | 274° |
| 2026-04-28 19:07 | 41.24343 | 36.84924 | 36460 ft | 422 kts | 274° |
| 2026-04-28 19:07 | 41.24633 | 36.81043 | 36761 ft | 422 kts | 274° |
| 2026-04-28 19:07 | 41.24922 | 36.77161 | 37053 ft | 421 kts | 274° |
| 2026-04-28 19:07 | 41.25209 | 36.73293 | 37334 ft | 421 kts | 274° |
| 2026-04-28 19:08 | 41.25496 | 36.69414 | 37614 ft | 420 kts | 274° |
| 2026-04-28 19:08 | 41.25780 | 36.65558 | 37876 ft | 420 kts | 274° |
| 2026-04-28 19:08 | 41.26038 | 36.61690 | 38131 ft | 420 kts | 271° |
| 2026-04-28 19:08 | 41.26050 | 36.57823 | 38159 ft | 418 kts | 265° |
| 2026-04-28 19:09 | 41.25160 | 36.50193 | 38154 ft | 417 kts | 254° |
| 2026-04-28 19:09 | 41.23245 | 36.42904 | 38156 ft | 418 kts | 249° |
| 2026-04-28 19:10 | 41.21203 | 36.35721 | 38150 ft | 418 kts | 249° |
| 2026-04-28 19:10 | 41.19180 | 36.28480 | 38142 ft | 418 kts | 250° |
| 2026-04-28 19:11 | 41.17164 | 36.21226 | 38128 ft | 419 kts | 250° |
| 2026-04-28 19:11 | 41.15148 | 36.13987 | 38109 ft | 419 kts | 250° |
| 2026-04-28 19:12 | 41.13124 | 36.06747 | 38105 ft | 419 kts | 250° |
| 2026-04-28 19:12 | 41.11090 | 35.99495 | 38093 ft | 419 kts | 250° |
| 2026-04-28 19:13 | 41.09051 | 35.92251 | 38085 ft | 419 kts | 250° |
| 2026-04-28 19:13 | 41.06957 | 35.85030 | 38070 ft | 420 kts | 249° |
| 2026-04-28 19:14 | 41.04832 | 35.77824 | 38062 ft | 420 kts | 249° |
| 2026-04-28 19:14 | 41.02711 | 35.70634 | 38048 ft | 419 kts | 249° |
| 2026-04-28 19:15 | 41.00612 | 35.63425 | 38041 ft | 419 kts | 250° |
| 2026-04-28 19:15 | 40.98902 | 35.57419 | 38046 ft | 419 kts | 250° |
| 2026-04-28 19:16 | 40.96495 | 35.48985 | 38040 ft | 419 kts | 250° |
| 2026-04-28 19:16 | 40.94437 | 35.41817 | 38044 ft | 419 kts | 250° |
| 2026-04-28 19:17 | 40.92351 | 35.34570 | 38037 ft | 419 kts | 250° |
| 2026-04-28 19:17 | 40.90285 | 35.27414 | 38129 ft | 420 kts | 250° |
| 2026-04-28 19:18 | 40.88192 | 35.20179 | 38032 ft | 422 kts | 249° |
| 2026-04-28 19:18 | 40.86086 | 35.12932 | 38011 ft | 423 kts | 249° |
| 2026-04-28 19:19 | 40.83973 | 35.05681 | 38005 ft | 423 kts | 249° |
| 2026-04-28 19:19 | 40.81856 | 34.98439 | 37994 ft | 423 kts | 249° |
| 2026-04-28 19:20 | 40.79731 | 34.91187 | 37990 ft | 423 kts | 249° |
| 2026-04-28 19:20 | 40.77600 | 34.83937 | 37987 ft | 424 kts | 249° |
| 2026-04-28 19:21 | 40.75476 | 34.76731 | 37978 ft | 424 kts | 249° |
| 2026-04-28 19:21 | 40.73311 | 34.69439 | 37978 ft | 424 kts | 249° |
| 2026-04-28 19:22 | 40.71496 | 34.63428 | 37980 ft | 425 kts | 249° |
| 2026-04-28 19:22 | 40.68947 | 34.55013 | 37979 ft | 425 kts | 249° |
| 2026-04-28 19:23 | 40.66755 | 34.47789 | 37979 ft | 425 kts | 249° |
| 2026-04-28 19:23 | 40.64558 | 34.40562 | 37972 ft | 425 kts | 249° |
| 2026-04-28 19:24 | 40.62359 | 34.33346 | 37971 ft | 425 kts | 249° |
| 2026-04-28 19:24 | 40.60155 | 34.26133 | 37969 ft | 424 kts | 249° |
| 2026-04-28 19:25 | 40.57945 | 34.18921 | 37971 ft | 425 kts | 249° |
| 2026-04-28 19:25 | 40.55729 | 34.11711 | 37974 ft | 425 kts | 249° |
| 2026-04-28 19:26 | 40.53522 | 34.04549 | 37974 ft | 425 kts | 249° |
| 2026-04-28 19:26 | 40.51296 | 33.97345 | 37977 ft | 425 kts | 249° |
| 2026-04-28 19:27 | 40.49254 | 33.90050 | 37976 ft | 425 kts | 252° |
| 2026-04-28 19:27 | 40.47414 | 33.82664 | 37978 ft | 425 kts | 253° |
| 2026-04-28 19:28 | 40.45494 | 33.75316 | 37921 ft | 427 kts | 247° |
| 2026-04-28 19:28 | 40.44113 | 33.71857 | 37472 ft | 430 kts | 239° |
| 2026-04-28 19:28 | 40.42313 | 33.68701 | 36687 ft | 436 kts | 229° |
| 2026-04-28 19:29 | 40.40084 | 33.65933 | 35652 ft | 447 kts | 220° |
| 2026-04-28 19:29 | 40.38423 | 33.64302 | 34973 ft | 453 kts | 218° |
| 2026-04-28 19:29 | 40.35002 | 33.61023 | 33705 ft | 458 kts | 218° |
| 2026-04-28 19:29 | 40.32442 | 33.58525 | 32671 ft | 460 kts | 219° |
| 2026-04-28 19:30 | 40.29883 | 33.55989 | 31627 ft | 463 kts | 219° |
| 2026-04-28 19:30 | 40.27309 | 33.53415 | 30598 ft | 466 kts | 219° |
| 2026-04-28 19:30 | 40.24727 | 33.50821 | 29486 ft | 469 kts | 219° |
| 2026-04-28 19:30 | 40.22150 | 33.48234 | 28816 ft | 462 kts | 219° |
| 2026-04-28 19:31 | 40.19644 | 33.45723 | 28603 ft | 445 kts | 220° |
| 2026-04-28 19:31 | 40.17239 | 33.43285 | 28427 ft | 429 kts | 222° |
| 2026-04-28 19:31 | 40.15038 | 33.40757 | 28262 ft | 413 kts | 224° |
| 2026-04-28 19:31 | 40.12938 | 33.38294 | 28117 ft | 399 kts | 224° |
| 2026-04-28 19:32 | 40.10909 | 33.35924 | 27977 ft | 385 kts | 224° |
| 2026-04-28 19:32 | 40.08939 | 33.33647 | 27854 ft | 371 kts | 224° |
| 2026-04-28 19:32 | 40.07028 | 33.31458 | 27730 ft | 359 kts | 224° |
| 2026-04-28 19:32 | 40.05168 | 33.29337 | 27396 ft | 353 kts | 224° |
| 2026-04-28 19:33 | 40.03323 | 33.27238 | 26918 ft | 351 kts | 224° |
| 2026-04-28 19:33 | 40.01446 | 33.25215 | 26480 ft | 349 kts | 219° |
| 2026-04-28 19:33 | 39.99495 | 33.23339 | 26047 ft | 347 kts | 219° |
| 2026-04-28 19:33 | 39.97549 | 33.21485 | 25531 ft | 347 kts | 219° |
| 2026-04-28 19:34 | 39.95605 | 33.19635 | 24826 ft | 354 kts | 218° |
| 2026-04-28 19:34 | 39.93595 | 33.17721 | 24110 ft | 361 kts | 218° |
| 2026-04-28 19:34 | 39.91560 | 33.15784 | 23392 ft | 366 kts | 218° |
| 2026-04-28 19:34 | 39.89476 | 33.13800 | 22566 ft | 371 kts | 218° |
| 2026-04-28 19:35 | 39.87378 | 33.11804 | 21763 ft | 375 kts | 218° |
| 2026-04-28 19:35 | 39.85258 | 33.09789 | 20989 ft | 378 kts | 218° |
| 2026-04-28 19:35 | 39.83130 | 33.07769 | 20388 ft | 377 kts | 218° |
| 2026-04-28 19:35 | 39.81026 | 33.05774 | 19785 ft | 374 kts | 218° |
| 2026-04-28 19:36 | 39.78897 | 33.03755 | 18809 ft | 383 kts | 218° |
| 2026-04-28 19:36 | 39.76707 | 33.01676 | 17662 ft | 393 kts | 218° |
| 2026-04-28 19:36 | 39.74479 | 32.99564 | 16580 ft | 399 kts | 218° |
| 2026-04-28 19:36 | 39.72249 | 32.97452 | 15981 ft | 392 kts | 218° |
| 2026-04-28 19:37 | 39.70089 | 32.95413 | 15784 ft | 375 kts | 218° |
| 2026-04-28 19:37 | 39.68717 | 32.94120 | 15668 ft | 364 kts | 218° |
| 2026-04-28 19:37 | 39.66055 | 32.91613 | 15470 ft | 343 kts | 218° |
| 2026-04-28 19:37 | 39.64240 | 32.89804 | 15343 ft | 327 kts | 227° |
| 2026-04-28 19:38 | 39.62974 | 32.87417 | 15216 ft | 308 kts | 250° |
| 2026-04-28 19:38 | 39.62592 | 32.84772 | 15110 ft | 293 kts | 272° |
| 2026-04-28 19:38 | 39.63004 | 32.82259 | 14983 ft | 281 kts | 292° |
| 2026-04-28 19:38 | 39.64021 | 32.80128 | 14658 ft | 278 kts | 306° |
| 2026-04-28 19:39 | 39.65446 | 32.78438 | 14258 ft | 281 kts | 329° |
| 2026-04-28 19:39 | 39.67326 | 32.77721 | 13849 ft | 287 kts | 355° |
| 2026-04-28 19:39 | 39.69273 | 32.78143 | 13417 ft | 292 kts | 20° |
| 2026-04-28 19:39 | 39.71031 | 32.79548 | 13002 ft | 295 kts | 36° |
| 2026-04-28 19:40 | 39.72574 | 32.81238 | 12635 ft | 293 kts | 39° |
| 2026-04-28 19:40 | 39.74110 | 32.82972 | 12264 ft | 292 kts | 38° |
| 2026-04-28 19:40 | 39.75674 | 32.84646 | 11899 ft | 290 kts | 36° |
| 2026-04-28 19:40 | 39.77265 | 32.86251 | 11527 ft | 288 kts | 35° |
| 2026-04-28 19:41 | 39.78870 | 32.87801 | 11166 ft | 287 kts | 34° |
| 2026-04-28 19:41 | 39.80465 | 32.89310 | 10991 ft | 277 kts | 33° |
| 2026-04-28 19:41 | 39.81996 | 32.90749 | 10902 ft | 266 kts | 33° |
| 2026-04-28 19:41 | 39.83472 | 32.92131 | 10758 ft | 257 kts | 33° |
| 2026-04-28 19:42 | 39.84919 | 32.93487 | 10458 ft | 255 kts | 33° |
| 2026-04-28 19:42 | 39.86342 | 32.94818 | 10139 ft | 255 kts | 33° |
| 2026-04-28 19:42 | 39.87798 | 32.96185 | 9815 ft | 254 kts | 33° |
| 2026-04-28 19:42 | 39.88744 | 32.97077 | 9613 ft | 253 kts | 33° |
| 2026-04-28 19:43 | 39.90691 | 32.98679 | 9229 ft | 245 kts | 17° |
| 2026-04-28 19:43 | 39.92299 | 32.99103 | 9111 ft | 229 kts | 1° |
| 2026-04-28 19:43 | 39.93858 | 32.99249 | 8953 ft | 220 kts | 2° |
| 2026-04-28 19:43 | 39.95341 | 32.99418 | 8836 ft | 208 kts | 1° |
| 2026-04-28 19:44 | 39.96791 | 32.99190 | 8346 ft | 211 kts | 332° |
| 2026-04-28 19:44 | 39.97806 | 32.97934 | 8002 ft | 201 kts | 294° |
| 2026-04-28 19:44 | 39.97950 | 32.96208 | 7644 ft | 191 kts | 255° |
| 2026-04-28 19:44 | 39.97204 | 32.94843 | 7311 ft | 186 kts | 217° |
| 2026-04-28 19:45 | 39.96165 | 32.93885 | 7010 ft | 179 kts | 216° |
| 2026-04-28 19:45 | 39.95213 | 32.92974 | 6731 ft | 161 kts | 218° |
| 2026-04-28 19:45 | 39.94389 | 32.91963 | 6036 ft | 168 kts | 237° |
| 2026-04-28 19:45 | 39.94028 | 32.90504 | 5305 ft | 173 kts | 268° |
| 2026-04-28 19:46 | 39.94378 | 32.89094 | 4826 ft | 161 kts | 313° |
| 2026-04-28 19:46 | 39.95305 | 32.88598 | 4823 ft | 142 kts | 7° |
| 2026-04-28 19:46 | 39.96205 | 32.89172 | 5102 ft | 154 kts | 32° |
| 2026-04-28 19:46 | 39.97200 | 32.89751 | 5094 ft | 158 kts | 13° |
| 2026-04-28 19:47 | 39.98253 | 32.89952 | 5033 ft | 147 kts | 6° |
| 2026-04-28 19:47 | 39.99234 | 32.90175 | 4961 ft | 142 kts | 14° |
| 2026-04-28 19:47 | 39.99866 | 32.90415 | 4929 ft | 139 kts | 19° |
| 2026-04-28 19:47 | 40.00755 | 32.90893 | 4860 ft | 137 kts | 25° |
| 2026-04-28 19:48 | 40.01632 | 32.91466 | 4705 ft | 146 kts | 28° |
| 2026-04-28 19:48 | 40.02530 | 32.92092 | 4494 ft | 148 kts | 26° |
| 2026-04-28 19:48 | 40.03457 | 32.92706 | 4265 ft | 150 kts | 28° |
| 2026-04-28 19:48 | 40.04369 | 32.93409 | 3979 ft | 155 kts | 33° |
| 2026-04-28 19:49 | 40.05242 | 32.94242 | 3804 ft | 154 kts | 38° |
| 2026-04-28 19:49 | 40.06120 | 32.94977 | 3672 ft | 149 kts | 32° |
| 2026-04-28 19:49 | 40.06974 | 32.95750 | 3516 ft | 148 kts | 36° |
| 2026-04-28 19:49 | 40.07785 | 32.96526 | 3446 ft | 142 kts | 37° |
| 2026-04-28 19:50 | 40.09430 | 32.98082 | 3265 ft | 151 kts | 37° |
| 2026-04-28 19:50 | 40.10258 | 32.98884 | 3155 ft | 147 kts | 37° |
| 2026-04-28 19:50 | 40.11083 | 32.99651 | 3748 ft | 143 kts | 28° |
| 2026-04-28 19:51 | 40.12107 | 32.99755 | 4262 ft | 159 kts | 342° |
| 2026-04-28 19:51 | 40.12944 | 32.98816 | 4665 ft | 170 kts | 298° |
| 2026-04-28 19:51 | 40.13048 | 32.97250 | 5206 ft | 176 kts | 253° |
| 2026-04-28 19:51 | 40.12319 | 32.96039 | 5851 ft | 175 kts | 211° |
| 2026-04-28 19:52 | 40.11177 | 32.95525 | 6482 ft | 174 kts | 194° |
| 2026-04-28 19:52 | 40.10019 | 32.95048 | 7037 ft | 175 kts | 204° |
| 2026-04-28 19:52 | 40.08958 | 32.94272 | 7569 ft | 176 kts | 216° |
| 2026-04-28 19:52 | 40.08008 | 32.93227 | 7656 ft | 180 kts | 226° |
| 2026-04-28 19:53 | 40.07178 | 32.92043 | 7584 ft | 173 kts | 231° |
| 2026-04-28 19:53 | 40.06429 | 32.90835 | 7224 ft | 171 kts | 233° |
| 2026-04-28 19:53 | 40.05696 | 32.89606 | 6712 ft | 173 kts | 233° |
| 2026-04-28 19:53 | 40.04956 | 32.88361 | 6182 ft | 174 kts | 233° |
| 2026-04-28 19:54 | 40.04206 | 32.87112 | 5658 ft | 175 kts | 233° |
| 2026-04-28 19:54 | 40.03454 | 32.85870 | 5210 ft | 172 kts | 233° |
| 2026-04-28 19:54 | 40.02701 | 32.84633 | 5067 ft | 177 kts | 233° |
| 2026-04-28 19:54 | 40.01879 | 32.83458 | 5033 ft | 176 kts | 215° |
| 2026-04-28 19:55 | 40.00709 | 32.83084 | 5042 ft | 179 kts | 173° |
| 2026-04-28 19:55 | 39.99582 | 32.83825 | 5043 ft | 186 kts | 133° |
| 2026-04-28 19:55 | 39.99068 | 32.85328 | 5051 ft | 184 kts | 97° |
| 2026-04-28 19:55 | 39.99031 | 32.87002 | 5042 ft | 184 kts | 87° |
| 2026-04-28 19:56 | 39.99331 | 32.88585 | 5014 ft | 177 kts | 58° |
| 2026-04-28 19:56 | 40.00193 | 32.89628 | 4851 ft | 166 kts | 33° |
| 2026-04-28 19:56 | 40.01163 | 32.90461 | 4757 ft | 169 kts | 34° |
| 2026-04-28 19:56 | 40.02134 | 32.91340 | 4664 ft | 169 kts | 36° |
| 2026-04-28 19:57 | 40.03088 | 32.92214 | 4527 ft | 163 kts | 34° |
| 2026-04-28 19:57 | 40.03994 | 32.93002 | 4350 ft | 151 kts | 34° |
| 2026-04-28 19:57 | 40.04851 | 32.93788 | 4111 ft | 150 kts | 35° |
| 2026-04-28 19:57 | 40.05676 | 32.94557 | 3729 ft | 145 kts | 36° |
| 2026-04-28 19:58 | 40.06486 | 32.95306 | 3523 ft | 139 kts | 36° |
| 2026-04-28 19:58 | 40.07277 | 32.96042 | 3433 ft | 142 kts | 37° |
| 2026-04-28 19:58 | 40.08072 | 32.96798 | 3347 ft | 140 kts | 38° |
| 2026-04-28 19:58 | 40.08857 | 32.97548 | 3254 ft | 139 kts | 38° |
| 2026-04-28 19:59 | 40.09640 | 32.98292 | 3188 ft | 137 kts | 38° |
| 2026-04-28 19:59 | 40.10380 | 32.98992 | 3146 ft | 133 kts | 38° |
| 2026-04-28 19:59 | 40.11093 | 32.99676 | 3122 ft | 115 kts | 38° |
| 2026-04-28 19:59 | 40.11567 | 33.00141 | 3121 ft | 55 kts | 36° |
| 2026-04-28 20:00 | 40.11846 | 33.00400 | 3122 ft | 47 kts | 36° |
| 2026-04-28 20:00 | 40.12101 | 33.00657 | 3122 ft | 45 kts | 40° |
| 2026-04-28 20:00 | 40.12353 | 33.00876 | 3122 ft | 42 kts | 35° |
| 2026-04-28 20:00 | 40.12475 | 33.01082 | 3122 ft | 8 kts | 57° |
| 2026-04-28 20:01 | 40.12497 | 33.01068 | 3122 ft | 7 kts | 298° |
| 2026-04-28 20:01 | 40.12446 | 33.00953 | 3122 ft | 23 kts | 225° |
| 2026-04-28 20:01 | 40.12284 | 33.00795 | 3123 ft | 34 kts | 216° |
| 2026-04-28 20:01 | 40.12065 | 33.00589 | 3122 ft | 42 kts | 214° |
| 2026-04-28 20:02 | 40.11824 | 33.00376 | 3123 ft | 42 kts | 215° |
| 2026-04-28 20:02 | 40.11637 | 33.00153 | 3122 ft | 26 kts | 255° |
| 2026-04-28 20:02 | 40.11717 | 32.99941 | 3122 ft | 28 kts | 304° |
| 2026-04-28 20:02 | 40.11799 | 32.99747 | 3120 ft | 7 kts | 272° |
| 2026-04-28 20:03 | 40.11800 | 32.99660 | 3119 ft | 12 kts | 267° |
| 2026-04-28 20:03 | 40.11771 | 32.99562 | 3119 ft | 12 kts | 204° |
| 2026-04-28 20:03 | 40.11707 | 32.99566 | 3119 ft | 0 kts | 174° |
| 2026-04-28 20:17 | 40.11717 | 32.99565 | 3119 ft | 0 kts | 174° |